Time;durP1;ratioP1;P1;durP2;ratioP2;P2;SDS_P1;SDS_P2;PMS_P1;PMS_P2;Temp;Humidity;BMP_temperature;BMP_pressure;BME280_temperature;BME280_humidity;BME280_pressure;Samples;Min_cycle;Max_cycle;Signal;HPM_P1;HPM_P2
2021/01/16 00:00:58;;;;;;;6.47;5.22;;;4.50;99.90;;;;;;6195209;23;20154;-80
2021/01/16 00:03:24;;;;;;;7.40;6.30;;;4.50;99.90;;;;;;6070947;23;20157;-80
2021/01/16 00:05:52;;;;;;;8.10;6.40;;;4.60;99.90;;;;;;6037105;23;20203;-80
2021/01/16 00:08:22;;;;;;;8.63;6.55;;;4.60;99.90;;;;;;6030578;23;20582;-80
2021/01/16 00:10:54;;;;;;;9.68;7.60;;;4.60;99.90;;;;;;6032440;23;20182;-80
2021/01/16 00:13:23;;;;;;;10.02;7.63;;;4.60;99.90;;;;;;6030786;23;20152;-80
2021/01/16 00:15:49;;;;;;;8.52;7.45;;;4.50;99.90;;;;;;6032469;23;20240;-80
2021/01/16 00:18:17;;;;;;;9.63;7.10;;;4.50;99.90;;;;;;6032161;23;20173;-80
2021/01/16 00:21:05;;;;;;;8.88;6.50;;;4.50;99.90;;;;;;6030967;23;20474;-80
2021/01/16 00:23:31;;;;;;;13.00;8.38;;;4.50;99.90;;;;;;6054373;23;20544;-80
2021/01/16 00:25:57;;;;;;;9.67;7.40;;;4.50;99.90;;;;;;6030715;23;20150;-81
2021/01/16 00:28:29;;;;;;;8.50;6.72;;;4.50;99.90;;;;;;6030146;23;20558;-80
2021/01/16 00:30:57;;;;;;;8.85;7.35;;;4.50;99.90;;;;;;6031683;23;20162;-81
2021/01/16 00:33:42;;;;;;;11.82;7.57;;;4.50;99.90;;;;;;6032006;23;20161;-81
2021/01/16 00:36:08;;;;;;;9.27;7.65;;;4.50;99.90;;;;;;6032317;23;20156;-80
2021/01/16 00:38:42;;;;;;;9.20;6.75;;;4.50;99.90;;;;;;6034455;23;20169;-80
2021/01/16 00:41:08;;;;;;;11.70;7.40;;;4.50;99.90;;;;;;6030829;23;20137;-81
2021/01/16 00:43:34;;;;;;;9.23;7.45;;;4.40;99.90;;;;;;6030963;23;20815;-80
2021/01/16 00:46:00;;;;;;;8.20;6.80;;;4.40;99.90;;;;;;6032503;23;20472;-81
2021/01/16 00:48:29;;;;;;;8.07;6.18;;;4.40;99.90;;;;;;6007219;23;20243;-82
2021/01/16 00:50:58;;;;;;;11.75;9.00;;;4.40;99.90;;;;;;6007619;23;20645;-81
2021/01/16 00:53:31;;;;;;;10.07;7.82;;;4.40;99.90;;;;;;6030723;23;20130;-81
2021/01/16 00:56:02;;;;;;;10.50;7.85;;;4.40;99.90;;;;;;5984719;23;20200;-81
2021/01/16 00:58:33;;;;;;;10.38;7.70;;;4.40;99.90;;;;;;6029866;23;20177;-81
2021/01/16 01:01:21;;;;;;;9.80;8.00;;;4.40;99.90;;;;;;6030443;23;20129;-81
2021/01/16 01:03:47;;;;;;;10.43;7.87;;;4.30;99.90;;;;;;6030647;23;20220;-81
2021/01/16 01:06:14;;;;;;;9.80;7.38;;;4.40;99.90;;;;;;6030497;23;20541;-81
2021/01/16 01:08:40;;;;;;;7.77;6.67;;;4.30;99.90;;;;;;6031337;23;20162;-81
2021/01/16 01:11:06;;;;;;;9.65;7.60;;;4.30;99.90;;;;;;6030464;23;20498;-81
2021/01/16 01:13:31;;;;;;;9.97;6.90;;;4.30;99.90;;;;;;6031384;23;20584;-81
2021/01/16 01:15:57;;;;;;;9.07;6.80;;;4.30;99.90;;;;;;6033810;23;20146;-81
2021/01/16 01:18:23;;;;;;;9.37;6.17;;;4.30;99.90;;;;;;6029510;23;20603;-81
2021/01/16 01:20:52;;;;;;;8.47;7.47;;;4.30;99.90;;;;;;6031259;23;20145;-80
2021/01/16 01:23:18;;;;;;;10.85;7.43;;;4.30;99.90;;;;;;6030360;23;20532;-80
2021/01/16 01:25:43;;;;;;;9.40;7.70;;;4.30;99.90;;;;;;6030533;23;20196;-80
2021/01/16 01:28:09;;;;;;;9.47;6.60;;;4.30;99.90;;;;;;6031274;23;20169;-80
2021/01/16 01:30:35;;;;;;;7.50;6.70;;;4.40;99.90;;;;;;6032014;23;20177;-80
2021/01/16 01:33:01;;;;;;;11.23;8.13;;;4.30;99.90;;;;;;6032143;23;20141;-80
2021/01/16 01:35:29;;;;;;;8.50;7.05;;;4.30;99.90;;;;;;6032778;23;20160;-80
2021/01/16 01:37:56;;;;;;;9.77;6.72;;;4.30;99.90;;;;;;6032630;23;20180;-80
2021/01/16 01:40:25;;;;;;;7.45;6.63;;;4.30;99.90;;;;;;6031054;23;20157;-80
2021/01/16 01:42:52;;;;;;;7.28;6.40;;;4.30;99.90;;;;;;6031686;23;20192;-80
2021/01/16 01:45:20;;;;;;;9.27;6.90;;;4.30;99.90;;;;;;6031419;23;20256;-80
2021/01/16 01:47:47;;;;;;;7.88;6.35;;;4.30;99.90;;;;;;6031027;23;20192;-80
2021/01/16 01:50:18;;;;;;;8.23;6.47;;;4.30;99.90;;;;;;6029432;23;20153;-80
2021/01/16 01:52:45;;;;;;;7.80;7.00;;;4.30;99.90;;;;;;5986456;23;20153;-80
2021/01/16 01:55:11;;;;;;;7.83;6.90;;;4.30;99.90;;;;;;6030143;23;20201;-80
2021/01/16 01:57:40;;;;;;;7.95;6.40;;;4.40;99.90;;;;;;6029058;23;20636;-80
2021/01/16 02:00:07;;;;;;;7.07;5.78;;;4.40;99.90;;;;;;6029634;23;20180;-80
2021/01/16 02:02:40;;;;;;;7.68;5.78;;;4.40;99.90;;;;;;6099112;23;20162;-79
2021/01/16 02:05:07;;;;;;;9.32;5.85;;;4.40;99.90;;;;;;6183345;23;20178;-80
2021/01/16 02:07:39;;;;;;;8.10;5.80;;;4.50;99.90;;;;;;6156368;23;20173;-80
2021/01/16 02:10:19;;;;;;;6.93;5.65;;;4.50;99.90;;;;;;6157069;23;20221;-80
2021/01/16 02:12:46;;;;;;;8.05;6.45;;;4.50;99.90;;;;;;6183307;23;20201;-80
2021/01/16 02:15:33;;;;;;;6.95;5.35;;;4.50;99.90;;;;;;6164374;23;20146;-80
2021/01/16 02:18:12;;;;;;;7.10;6.25;;;4.50;99.90;;;;;;6186007;23;20200;-75
2021/01/16 02:20:41;;;;;;;8.75;6.45;;;4.50;99.90;;;;;;6132754;23;20130;-76
2021/01/16 02:23:07;;;;;;;8.48;6.65;;;4.50;99.90;;;;;;6157299;23;20240;-76
2021/01/16 02:25:55;;;;;;;9.50;6.87;;;4.50;99.90;;;;;;6157141;23;20224;-76
2021/01/16 02:28:26;;;;;;;8.90;6.55;;;4.40;99.90;;;;;;6156567;23;20561;-76
2021/01/16 02:30:52;;;;;;;8.23;5.75;;;4.50;99.90;;;;;;6133011;23;20146;-76
2021/01/16 02:33:22;;;;;;;9.57;6.47;;;4.50;99.90;;;;;;6183016;23;20588;-76
2021/01/16 02:36:06;;;;;;;8.07;6.03;;;4.50;99.90;;;;;;6183743;23;20225;-76
2021/01/16 02:38:44;;;;;;;7.47;6.10;;;4.50;99.90;;;;;;6132545;23;20193;-76
2021/01/16 02:41:34;;;;;;;8.00;6.80;;;4.50;99.90;;;;;;6132724;23;20150;-76
2021/01/16 02:44:20;;;;;;;7.57;5.53;;;4.50;99.90;;;;;;6183157;23;20628;-76
2021/01/16 02:46:49;;;;;;;8.80;7.03;;;4.50;99.90;;;;;;6157213;23;20686;-76
2021/01/16 02:49:29;;;;;;;9.18;7.05;;;4.50;99.90;;;;;;6181733;23;20612;-76
2021/01/16 02:52:02;;;;;;;8.52;6.28;;;4.50;99.90;;;;;;6156985;23;20126;-76
2021/01/16 02:54:31;;;;;;;9.18;7.13;;;4.50;99.90;;;;;;6183047;23;20145;-76
2021/01/16 02:56:58;;;;;;;7.65;6.47;;;4.50;99.90;;;;;;6183445;23;20208;-76
2021/01/16 02:59:23;;;;;;;8.02;6.45;;;4.50;99.90;;;;;;6132000;23;20157;-76
2021/01/16 03:01:49;;;;;;;9.83;6.97;;;4.50;99.90;;;;;;6156963;23;20546;-76
2021/01/16 03:04:15;;;;;;;7.90;6.50;;;4.50;99.90;;;;;;6158406;23;20174;-76
2021/01/16 03:06:48;;;;;;;9.30;6.80;;;4.40;99.90;;;;;;6133748;23;21110;-76
2021/01/16 03:09:14;;;;;;;7.20;5.65;;;4.40;99.90;;;;;;6157765;23;20569;-76
2021/01/16 03:11:44;;;;;;;8.30;6.95;;;4.40;99.90;;;;;;6183249;23;20154;-76
2021/01/16 03:14:14;;;;;;;7.85;6.60;;;4.40;99.90;;;;;;6132317;23;20181;-75
2021/01/16 03:17:11;;;;;;;8.43;6.20;;;4.50;99.90;;;;;;6182744;23;20165;-76
2021/01/16 03:19:47;;;;;;;7.90;5.97;;;4.50;99.90;;;;;;6156858;23;20130;-76
2021/01/16 03:22:31;;;;;;;7.00;6.30;;;4.50;99.90;;;;;;6132454;23;20714;-76
2021/01/16 03:24:57;;;;;;;6.50;5.72;;;4.50;99.90;;;;;;6132089;23;20211;-76
2021/01/16 03:27:27;;;;;;;10.45;6.10;;;4.50;99.90;;;;;;6157025;23;20162;-76
2021/01/16 03:29:53;;;;;;;8.43;6.10;;;4.50;99.90;;;;;;6185306;23;20165;-75
2021/01/16 03:32:20;;;;;;;8.02;5.50;;;4.50;99.90;;;;;;6119402;23;20157;-76
2021/01/16 03:34:47;;;;;;;10.43;5.55;;;4.50;99.90;;;;;;6107200;23;20185;-76
2021/01/16 03:37:15;;;;;;;8.50;6.07;;;4.50;99.90;;;;;;6181899;23;20179;-75
2021/01/16 03:39:41;;;;;;;8.50;5.85;;;4.50;99.90;;;;;;6131705;23;20292;-75
2021/01/16 03:42:08;;;;;;;7.43;6.60;;;4.50;99.90;;;;;;6156309;23;20193;-75
2021/01/16 03:44:34;;;;;;;7.75;6.03;;;4.60;99.90;;;;;;6132653;23;20593;-76
2021/01/16 03:47:01;;;;;;;6.95;5.57;;;4.60;99.90;;;;;;6182673;23;20161;-75
2021/01/16 03:49:28;;;;;;;7.25;5.57;;;4.60;99.90;;;;;;6107277;23;20174;-75
2021/01/16 03:51:54;;;;;;;6.33;4.73;;;4.60;99.90;;;;;;6155041;23;20196;-75
2021/01/16 03:54:20;;;;;;;5.53;4.65;;;4.60;99.90;;;;;;6182479;23;20241;-75
2021/01/16 03:56:46;;;;;;;6.90;5.40;;;4.60;99.90;;;;;;6107532;23;20196;-75
2021/01/16 03:59:11;;;;;;;7.37;6.07;;;4.60;99.90;;;;;;6155590;23;20575;-75
2021/01/16 04:01:38;;;;;;;5.70;4.80;;;4.60;99.90;;;;;;6159437;23;20154;-76
2021/01/16 04:04:07;;;;;;;7.68;5.57;;;4.60;99.90;;;;;;6157451;23;20573;-75
2021/01/16 04:06:32;;;;;;;5.77;4.27;;;4.60;99.90;;;;;;6131342;23;20790;-75
2021/01/16 04:08:58;;;;;;;6.30;4.97;;;4.60;99.90;;;;;;6155592;23;21054;-75
2021/01/16 04:11:24;;;;;;;7.47;5.90;;;4.70;99.90;;;;;;6155950;23;20146;-74
2021/01/16 04:13:53;;;;;;;9.10;6.53;;;4.70;99.90;;;;;;6108090;23;20890;-75
2021/01/16 04:16:20;;;;;;;7.65;5.38;;;4.70;99.90;;;;;;6131648;23;20142;-75
2021/01/16 04:18:46;;;;;;;7.82;5.95;;;4.70;99.90;;;;;;6181670;23;20153;-75
2021/01/16 04:21:12;;;;;;;7.65;5.20;;;4.70;99.90;;;;;;6130914;23;20151;-75
2021/01/16 04:23:38;;;;;;;7.40;4.40;;;4.70;99.90;;;;;;6133265;23;20145;-76
2021/01/16 04:26:04;;;;;;;6.00;4.73;;;4.70;99.90;;;;;;6155740;23;20227;-76
2021/01/16 04:28:30;;;;;;;6.93;5.80;;;4.70;99.90;;;;;;6180621;23;20174;-76
2021/01/16 04:30:59;;;;;;;7.77;5.00;;;4.70;99.90;;;;;;6157037;23;20549;-75
2021/01/16 04:33:25;;;;;;;9.73;5.40;;;4.70;99.90;;;;;;6183327;23;20212;-77
2021/01/16 04:35:51;;;;;;;8.98;6.00;;;4.80;99.90;;;;;;6156457;23;20145;-77
2021/01/16 04:38:17;;;;;;;6.90;4.97;;;4.70;99.90;;;;;;6106915;23;20169;-77
2021/01/16 04:40:43;;;;;;;8.27;5.83;;;4.70;99.90;;;;;;6131480;23;20790;-77
2021/01/16 04:43:11;;;;;;;7.13;5.68;;;4.70;99.90;;;;;;6131758;23;20453;-77
2021/01/16 04:45:37;;;;;;;6.57;5.28;;;4.80;99.90;;;;;;6131194;23;20197;-77
2021/01/16 04:48:04;;;;;;;6.82;5.60;;;4.70;99.90;;;;;;6155579;23;20246;-77
2021/01/16 04:50:32;;;;;;;9.23;5.90;;;4.70;99.90;;;;;;6181577;23;20146;-77
2021/01/16 04:53:05;;;;;;;6.85;5.05;;;4.70;99.90;;;;;;6131884;23;20683;-77
2021/01/16 04:55:38;;;;;;;6.10;5.13;;;4.80;99.90;;;;;;6157067;23;20596;-74
2021/01/16 04:58:09;;;;;;;8.95;6.55;;;4.80;99.90;;;;;;6156081;23;20173;-75
2021/01/16 05:00:37;;;;;;;7.55;5.10;;;4.80;99.90;;;;;;6131262;23;20635;-75
2021/01/16 05:03:08;;;;;;;8.75;6.45;;;4.80;99.90;;;;;;6183721;23;20225;-76
2021/01/16 05:05:38;;;;;;;10.63;6.63;;;4.70;99.90;;;;;;6182579;23;20173;-75
2021/01/16 05:08:04;;;;;;;7.55;5.32;;;4.70;99.90;;;;;;6157454;23;20165;-76
2021/01/16 05:10:39;;;;;;;8.73;6.05;;;4.70;99.90;;;;;;6205924;23;20441;-76
2021/01/16 05:13:09;;;;;;;7.25;5.72;;;4.70;99.90;;;;;;6182162;23;20134;-76
2021/01/16 05:15:37;;;;;;;7.30;6.20;;;4.70;99.90;;;;;;6157604;23;20148;-76
2021/01/16 05:18:08;;;;;;;9.23;6.70;;;4.70;99.90;;;;;;6067151;23;20219;-76
2021/01/16 05:20:37;;;;;;;9.38;6.32;;;4.70;99.90;;;;;;6031668;23;20164;-75
2021/01/16 05:23:16;;;;;;;12.50;7.78;;;4.70;99.90;;;;;;6055323;23;20200;-76
2021/01/16 05:25:45;;;;;;;9.55;6.65;;;4.70;99.90;;;;;;6055625;23;20181;-75
2021/01/16 05:28:14;;;;;;;9.27;6.82;;;4.70;99.90;;;;;;6056211;23;20176;-75
2021/01/16 05:30:49;;;;;;;9.27;7.15;;;4.70;99.90;;;;;;6034142;23;20207;-75
2021/01/16 05:33:15;;;;;;;10.73;7.50;;;4.70;99.90;;;;;;6010269;23;20149;-75
2021/01/16 05:35:42;;;;;;;9.98;7.10;;;4.70;99.90;;;;;;6035512;23;20145;-75
2021/01/16 05:38:11;;;;;;;10.88;8.30;;;4.70;99.90;;;;;;6036195;23;20628;-75
2021/01/16 05:40:37;;;;;;;12.38;8.38;;;4.70;99.90;;;;;;6037266;23;20220;-75
2021/01/16 05:43:04;;;;;;;9.60;7.97;;;4.70;99.90;;;;;;6035548;23;20153;-75
2021/01/16 05:45:34;;;;;;;10.32;7.43;;;4.70;99.90;;;;;;6035235;23;20184;-75
2021/01/16 05:48:02;;;;;;;9.70;8.55;;;4.70;99.90;;;;;;6009897;23;20175;-76
2021/01/16 05:50:29;;;;;;;14.68;8.82;;;4.70;99.90;;;;;;6010827;23;20150;-75
2021/01/16 05:52:56;;;;;;;14.15;9.20;;;4.70;99.90;;;;;;6010753;23;20222;-76
2021/01/16 05:55:22;;;;;;;13.57;9.15;;;4.70;99.90;;;;;;6035486;23;20157;-75
2021/01/16 05:57:48;;;;;;;12.52;9.15;;;4.70;99.90;;;;;;6033642;23;20215;-75
2021/01/16 06:00:24;;;;;;;11.82;8.50;;;4.70;99.90;;;;;;6008772;23;20164;-76
2021/01/16 06:02:52;;;;;;;10.50;8.45;;;4.70;99.90;;;;;;6032472;23;20187;-75
2021/01/16 06:05:25;;;;;;;13.80;7.43;;;4.70;99.90;;;;;;6031635;23;20251;-75
2021/01/16 06:07:54;;;;;;;9.98;7.68;;;4.70;99.90;;;;;;6007725;23;20178;-75
2021/01/16 06:10:22;;;;;;;10.02;8.25;;;4.70;99.90;;;;;;6033006;23;20169;-75
2021/01/16 06:12:49;;;;;;;8.15;7.15;;;4.70;99.90;;;;;;6033716;23;20152;-75
2021/01/16 06:15:18;;;;;;;10.65;8.20;;;4.70;99.90;;;;;;6033738;23;20150;-75
2021/01/16 06:17:47;;;;;;;8.77;7.50;;;4.70;99.90;;;;;;6007468;23;20638;-75
2021/01/16 06:20:21;;;;;;;8.85;7.38;;;4.70;99.90;;;;;;6032058;23;20150;-76
2021/01/16 06:22:49;;;;;;;9.52;7.60;;;4.70;99.90;;;;;;6032300;23;20472;-75
2021/01/16 06:25:21;;;;;;;9.77;8.40;;;4.70;99.90;;;;;;6032810;23;20177;-75
2021/01/16 06:27:48;;;;;;;14.93;7.55;;;4.70;99.90;;;;;;6030985;23;20165;-75
2021/01/16 06:30:18;;;;;;;12.38;7.60;;;4.70;99.90;;;;;;6007694;23;20636;-75
2021/01/16 06:32:53;;;;;;;11.60;8.45;;;4.60;99.90;;;;;;6030944;23;20229;-75
2021/01/16 06:35:20;;;;;;;9.45;7.50;;;4.60;99.90;;;;;;6007694;23;20141;-76
2021/01/16 06:37:49;;;;;;;9.68;7.68;;;4.60;99.90;;;;;;5983809;23;20228;-75
2021/01/16 06:40:30;;;;;;;9.43;6.85;;;4.60;99.90;;;;;;6032784;23;20156;-75
2021/01/16 06:42:57;;;;;;;9.68;8.00;;;4.60;99.90;;;;;;6030843;23;20152;-75
2021/01/16 06:45:24;;;;;;;10.48;7.70;;;4.60;99.90;;;;;;6032266;23;20639;-76
2021/01/16 06:48:04;;;;;;;11.60;7.35;;;4.60;99.90;;;;;;6007063;23;20177;-75
2021/01/16 06:50:36;;;;;;;8.65;7.50;;;4.60;99.90;;;;;;6029690;23;20141;-76
2021/01/16 06:53:03;;;;;;;8.73;7.80;;;4.60;99.90;;;;;;6031649;23;20149;-76
2021/01/16 06:55:33;;;;;;;9.32;8.02;;;4.60;99.90;;;;;;6030234;23;20527;-77
2021/01/16 06:58:18;;;;;;;9.50;8.50;;;4.70;99.90;;;;;;6029635;23;20228;-76
2021/01/16 07:00:55;;;;;;;10.77;7.85;;;4.60;99.90;;;;;;6029830;23;20149;-76
2021/01/16 07:03:25;;;;;;;8.57;7.70;;;4.60;99.90;;;;;;6006633;23;20176;-76
2021/01/16 07:05:55;;;;;;;10.40;8.70;;;4.60;99.90;;;;;;6006879;23;20913;-76
2021/01/16 07:08:28;;;;;;;12.07;9.85;;;4.60;99.90;;;;;;6030317;23;20810;-76
2021/01/16 07:10:57;;;;;;;10.15;8.25;;;4.60;99.90;;;;;;6031586;23;20133;-76
2021/01/16 07:13:25;;;;;;;9.90;8.02;;;4.70;99.90;;;;;;6031299;23;20129;-75
2021/01/16 07:15:53;;;;;;;8.75;7.85;;;4.70;99.90;;;;;;6030833;23;20160;-76
2021/01/16 07:18:20;;;;;;;8.98;6.63;;;4.70;99.90;;;;;;6006758;23;20193;-76
2021/01/16 07:20:48;;;;;;;9.55;7.15;;;4.70;99.90;;;;;;5984303;23;20169;-76
2021/01/16 07:23:17;;;;;;;9.25;7.88;;;4.70;99.90;;;;;;6030939;23;20228;-76
2021/01/16 07:25:43;;;;;;;8.38;7.38;;;4.70;99.90;;;;;;6030918;23;20251;-76
2021/01/16 07:28:11;;;;;;;10.38;8.02;;;4.70;99.90;;;;;;6031705;23;20232;-76
2021/01/16 07:30:40;;;;;;;8.32;6.75;;;4.70;99.90;;;;;;6006672;23;20192;-75
2021/01/16 07:33:07;;;;;;;13.73;7.30;;;4.70;99.90;;;;;;6030740;23;20149;-76
2021/01/16 07:35:40;;;;;;;9.60;7.45;;;4.80;99.90;;;;;;6032157;23;20149;-76
2021/01/16 07:38:07;;;;;;;9.45;7.43;;;4.80;99.90;;;;;;6006721;23;20184;-76
2021/01/16 07:40:32;;;;;;;9.63;7.70;;;4.80;99.90;;;;;;6006874;23;20203;-77
2021/01/16 07:43:01;;;;;;;9.88;8.35;;;4.80;99.90;;;;;;6030004;23;20219;-77
2021/01/16 07:45:29;;;;;;;9.52;7.60;;;4.80;99.90;;;;;;6030429;23;20224;-76
2021/01/16 07:48:01;;;;;;;12.25;7.68;;;4.80;99.90;;;;;;6006572;23;20200;-77
2021/01/16 07:50:30;;;;;;;10.32;7.00;;;4.80;99.90;;;;;;6031930;23;20157;-76
2021/01/16 07:53:06;;;;;;;11.13;8.13;;;4.80;99.90;;;;;;6007193;23;20208;-76
2021/01/16 07:55:46;;;;;;;9.20;7.95;;;4.80;99.90;;;;;;6032389;23;20152;-75
2021/01/16 07:58:31;;;;;;;10.50;9.18;;;4.80;99.90;;;;;;6007519;23;20173;-76
2021/01/16 08:01:18;;;;;;;8.13;6.70;;;4.80;99.90;;;;;;6007140;23;20177;-76
2021/01/16 08:03:58;;;;;;;8.70;6.97;;;4.80;99.90;;;;;;6031786;23;20145;-78
2021/01/16 08:06:51;;;;;;;8.88;7.72;;;4.80;99.90;;;;;;6031036;23;20610;-78
2021/01/16 08:09:26;;;;;;;8.35;7.20;;;4.80;99.90;;;;;;6006681;23;20138;-77
2021/01/16 08:11:53;;;;;;;9.00;6.90;;;4.80;99.90;;;;;;6031164;23;20133;-77
2021/01/16 08:14:22;;;;;;;9.40;7.53;;;4.90;99.90;;;;;;6032598;23;20179;-78
2021/01/16 08:19:29;;;;;;;9.25;7.70;;;4.90;99.90;;;;;;6031679;23;20157;-79
2021/01/16 08:21:59;;;;;;;10.77;8.80;;;4.90;99.90;;;;;;6159164;23;20152;-76
2021/01/16 08:24:30;;;;;;;11.95;8.20;;;4.90;99.90;;;;;;6031809;23;20644;-76
2021/01/16 08:27:18;;;;;;;10.30;8.07;;;4.90;99.90;;;;;;6006638;23;20157;-77
2021/01/16 08:29:50;;;;;;;9.20;6.90;;;4.80;99.90;;;;;;6032138;23;20133;-77
2021/01/16 08:32:23;;;;;;;9.98;7.93;;;4.80;99.90;;;;;;6129495;23;20200;-77
2021/01/16 08:34:55;;;;;;;11.07;8.63;;;4.70;99.90;;;;;;6030938;23;20137;-78
2021/01/16 08:37:32;;;;;;;9.95;7.70;;;4.70;99.90;;;;;;6032699;23;20172;-76
2021/01/16 08:40:03;;;;;;;12.50;7.13;;;4.70;99.90;;;;;;6032027;23;20176;-77
2021/01/16 08:57:46;;;;;;;8.75;7.78;;;4.80;99.90;;;;;;6152601;23;20231;-82
2021/01/16 09:00:23;;;;;;;9.33;6.20;;;4.80;99.90;;;;;;6162376;23;20173;-82
2021/01/16 09:03:40;;;;;;;8.40;7.50;;;4.80;99.90;;;;;;6136541;23;20485;-81
2021/01/16 09:06:24;;;;;;;9.07;7.03;;;4.80;99.90;;;;;;6044962;23;20141;-79
2021/01/16 09:08:50;;;;;;;7.80;6.20;;;4.70;99.90;;;;;;6066704;23;20179;-79
2021/01/16 09:11:17;;;;;;;8.52;5.93;;;4.70;99.90;;;;;;6118397;23;20541;-82
2021/01/16 09:13:53;;;;;;;8.20;6.70;;;4.70;99.90;;;;;;6158291;23;20817;-82
2021/01/16 09:16:37;;;;;;;10.65;7.40;;;4.70;99.90;;;;;;6158102;23;20197;-79
2021/01/16 09:19:04;;;;;;;6.88;6.18;;;4.70;99.90;;;;;;6157382;23;20162;-79
2021/01/16 09:21:30;;;;;;;11.60;8.02;;;4.80;99.90;;;;;;6181997;23;20209;-80
2021/01/16 09:23:56;;;;;;;10.45;8.65;;;4.80;99.90;;;;;;6183206;23;20233;-80
2021/01/16 09:27:01;;;;;;;10.87;8.77;;;4.70;99.90;;;;;;6183225;23;20173;-80
2021/01/16 09:29:34;;;;;;;12.27;9.88;;;4.70;99.90;;;;;;6158217;23;20556;-79
2021/01/16 09:32:00;;;;;;;12.43;9.07;;;4.60;99.90;;;;;;6156681;23;20142;-80
2021/01/16 09:34:35;;;;;;;11.98;9.43;;;4.50;99.90;;;;;;6183284;23;20154;-80
2021/01/16 09:37:01;;;;;;;9.13;7.53;;;4.40;99.90;;;;;;6138668;23;20614;-78
2021/01/16 09:39:33;;;;;;;10.27;7.20;;;4.40;99.90;;;;;;6156184;23;20146;-81
2021/01/16 09:42:18;;;;;;;9.45;7.05;;;4.40;99.90;;;;;;6156611;23;20240;-80
2021/01/16 09:44:53;;;;;;;6.47;5.63;;;4.50;99.90;;;;;;6132897;23;20216;-80
2021/01/16 09:47:28;;;;;;;9.05;6.50;;;4.50;99.90;;;;;;6156641;23;20200;-80
2021/01/16 09:50:00;;;;;;;9.60;6.95;;;4.60;99.90;;;;;;6183059;23;20227;-80
2021/01/16 09:52:27;;;;;;;13.10;10.55;;;4.60;99.90;;;;;;6155749;23;20146;-80
2021/01/16 09:54:54;;;;;;;9.25;7.47;;;4.60;99.90;;;;;;6132773;23;20497;-79
2021/01/16 09:57:44;;;;;;;10.02;6.97;;;4.60;99.90;;;;;;6182742;23;20209;-80
2021/01/16 10:00:14;;;;;;;8.48;6.35;;;4.50;99.90;;;;;;6182886;23;20504;-80
2021/01/16 10:02:42;;;;;;;10.68;6.75;;;4.60;99.90;;;;;;6157619;23;20150;-80
2021/01/16 10:05:12;;;;;;;12.02;7.75;;;4.60;99.90;;;;;;6183466;23;20174;-80
2021/01/16 10:07:39;;;;;;;7.72;6.57;;;4.60;99.90;;;;;;6182522;23;20173;-80
2021/01/16 10:10:13;;;;;;;8.60;6.32;;;4.70;99.90;;;;;;6157537;23;20142;-79
2021/01/16 10:12:41;;;;;;;6.38;5.68;;;4.70;99.90;;;;;;6113200;23;20149;-79
2021/01/16 10:15:11;;;;;;;6.88;5.50;;;4.80;99.90;;;;;;6132597;23;20154;-80
2021/01/16 10:17:52;;;;;;;7.97;6.90;;;4.90;99.90;;;;;;6156474;23;20196;-80
2021/01/16 10:20:36;;;;;;;7.70;6.43;;;4.90;99.90;;;;;;6157016;23;20142;-80
2021/01/16 10:23:07;;;;;;;9.98;7.25;;;5.00;99.90;;;;;;6157872;23;20224;-80
2021/01/16 10:25:41;;;;;;;7.65;6.15;;;5.00;99.90;;;;;;6156673;23;20196;-80
2021/01/16 10:28:11;;;;;;;7.30;6.35;;;5.00;99.90;;;;;;6156403;23;20161;-80
2021/01/16 10:30:57;;;;;;;7.93;7.13;;;5.00;99.90;;;;;;6182578;23;20138;-79
2021/01/16 10:33:24;;;;;;;9.90;6.95;;;5.00;99.90;;;;;;6183188;23;20134;-80
2021/01/16 10:36:04;;;;;;;7.57;6.80;;;5.10;99.90;;;;;;6156450;23;20152;-79
2021/01/16 10:38:40;;;;;;;8.95;7.65;;;5.10;99.90;;;;;;6182460;23;20177;-79
2021/01/16 10:41:11;;;;;;;10.05;7.90;;;5.00;99.90;;;;;;6156723;23;20206;-79
2021/01/16 10:43:38;;;;;;;7.57;6.30;;;5.10;99.90;;;;;;6157542;23;20134;-80
2021/01/16 10:46:11;;;;;;;11.68;7.47;;;5.10;99.90;;;;;;6157100;23;20170;-80
2021/01/16 10:48:39;;;;;;;13.30;7.47;;;5.10;99.90;;;;;;6181295;23;20201;-80
2021/01/16 10:51:09;;;;;;;10.73;8.07;;;5.00;99.90;;;;;;6161108;23;20168;-81
2021/01/16 10:53:40;;;;;;;9.57;7.05;;;5.10;99.90;;;;;;6183234;23;20496;-81
2021/01/16 10:56:12;;;;;;;11.63;8.40;;;5.10;99.90;;;;;;6156813;23;20177;-80
2021/01/16 10:58:40;;;;;;;12.82;8.40;;;5.00;99.90;;;;;;6183012;23;20513;-78
2021/01/16 11:01:09;;;;;;;9.68;7.10;;;5.10;99.90;;;;;;6158153;23;20237;-81
2021/01/16 11:03:35;;;;;;;10.18;7.85;;;5.10;99.90;;;;;;6133722;23;20157;-81
2021/01/16 11:06:24;;;;;;;7.40;6.47;;;5.10;99.90;;;;;;6142285;23;20215;-81
2021/01/16 11:08:53;;;;;;;9.55;6.35;;;5.00;99.90;;;;;;6132424;23;20170;-80
2021/01/16 11:11:24;;;;;;;8.55;7.07;;;5.10;99.90;;;;;;6157609;23;20200;-80
2021/01/16 11:13:51;;;;;;;8.30;6.60;;;5.10;99.90;;;;;;6158738;23;20153;-80
2021/01/16 11:16:23;;;;;;;7.82;6.35;;;5.10;99.90;;;;;;6157702;23;20156;-81
2021/01/16 11:18:52;;;;;;;9.80;7.10;;;5.10;99.90;;;;;;6157298;23;20166;-81
2021/01/16 11:21:35;;;;;;;9.77;7.30;;;5.20;99.90;;;;;;6108936;23;20158;-81
2021/01/16 11:24:45;;;;;;;8.88;7.05;;;5.20;99.90;;;;;;6158466;23;20221;-81
2021/01/16 11:27:18;;;;;;;10.15;8.18;;;5.20;99.90;;;;;;6116192;23;20192;-78
2021/01/16 11:29:45;;;;;;;9.75;7.88;;;5.20;99.90;;;;;;6184935;23;21006;-78
2021/01/16 11:32:15;;;;;;;10.55;9.07;;;5.20;99.90;;;;;;6135865;23;20181;-79
2021/01/16 11:35:13;;;;;;;10.63;7.75;;;5.20;99.90;;;;;;6160101;23;20623;-79
2021/01/16 11:37:45;;;;;;;10.93;8.52;;;5.30;99.90;;;;;;6159039;23;20170;-79
2021/01/16 11:40:31;;;;;;;9.68;7.68;;;5.40;99.90;;;;;;6158788;23;20192;-79
2021/01/16 11:42:59;;;;;;;8.07;6.95;;;5.40;99.90;;;;;;6160613;23;20144;-78
2021/01/16 11:45:28;;;;;;;10.05;8.10;;;5.40;99.90;;;;;;6133443;23;20212;-80
2021/01/16 11:48:04;;;;;;;10.73;8.35;;;5.40;99.90;;;;;;6132166;23;20177;-80
2021/01/16 11:50:40;;;;;;;10.00;7.97;;;5.40;99.90;;;;;;6107315;23;20153;-79
2021/01/16 11:53:12;;;;;;;11.38;7.10;;;5.30;99.90;;;;;;6156506;23;20153;-79
2021/01/16 11:55:41;;;;;;;7.82;6.70;;;5.30;99.90;;;;;;6156279;23;20146;-79
2021/01/16 11:58:12;;;;;;;11.57;7.55;;;5.30;99.90;;;;;;6014232;23;20280;-79
2021/01/16 12:00:38;;;;;;;10.52;8.20;;;5.40;99.90;;;;;;6030723;23;20160;-80
2021/01/16 12:03:05;;;;;;;7.00;5.80;;;5.40;99.90;;;;;;6032651;23;20196;-79
2021/01/16 12:05:32;;;;;;;10.90;7.13;;;5.50;99.90;;;;;;6012668;23;20278;-79
2021/01/16 12:07:58;;;;;;;8.35;6.45;;;5.60;99.90;;;;;;6032487;23;20173;-79
2021/01/16 12:10:26;;;;;;;7.90;7.03;;;5.70;99.90;;;;;;6032523;23;20199;-79
2021/01/16 12:12:53;;;;;;;7.97;6.13;;;5.70;99.90;;;;;;6032111;23;20240;-80
2021/01/16 12:15:20;;;;;;;9.02;7.20;;;5.80;99.90;;;;;;6030556;23;20157;-79
2021/01/16 12:17:48;;;;;;;6.80;5.88;;;5.90;99.90;;;;;;6030039;23;20169;-81
2021/01/16 12:20:15;;;;;;;7.75;6.20;;;6.00;99.90;;;;;;6030517;23;20505;-80
2021/01/16 12:22:45;;;;;;;7.38;6.05;;;6.00;99.90;;;;;;6007089;23;20161;-79
2021/01/16 12:25:13;;;;;;;10.85;6.60;;;6.10;99.90;;;;;;6030672;23;20161;-80
2021/01/16 12:27:48;;;;;;;12.85;6.72;;;6.10;99.90;;;;;;6031772;23;20172;-81
2021/01/16 12:30:18;;;;;;;8.95;6.40;;;6.20;99.90;;;;;;6006971;23;20606;-80
2021/01/16 12:32:45;;;;;;;7.88;6.70;;;6.20;99.90;;;;;;6006537;23;20189;-79
2021/01/16 12:35:12;;;;;;;7.50;6.15;;;6.20;99.90;;;;;;6030409;23;20149;-80
2021/01/16 12:37:41;;;;;;;7.65;5.53;;;6.30;99.90;;;;;;6031018;23;20885;-80
2021/01/16 12:40:18;;;;;;;7.05;6.10;;;6.30;99.90;;;;;;6031810;23;20148;-80
2021/01/16 12:42:51;;;;;;;7.82;6.00;;;6.30;99.90;;;;;;6034797;23;20149;-79
2021/01/16 12:45:24;;;;;;;6.13;5.15;;;6.40;99.90;;;;;;6032535;23;20554;-79
2021/01/16 12:47:54;;;;;;;7.70;5.50;;;6.50;99.90;;;;;;6029586;23;20176;-81
2021/01/16 12:50:25;;;;;;;6.80;5.10;;;6.50;99.90;;;;;;6031714;23;20164;-80
2021/01/16 12:52:54;;;;;;;6.38;5.47;;;6.60;99.90;;;;;;6007224;23;20160;-81
2021/01/16 12:55:22;;;;;;;5.72;4.88;;;6.70;99.90;;;;;;6032066;23;20156;-80
2021/01/16 12:57:52;;;;;;;5.32;4.28;;;6.70;99.90;;;;;;6153586;23;20508;-80
2021/01/16 13:00:39;;;;;;;5.53;4.50;;;6.70;99.90;;;;;;6130632;23;20157;-80
2021/01/16 13:03:05;;;;;;;6.13;4.68;;;6.70;99.90;;;;;;6159654;23;20130;-80
2021/01/16 13:05:38;;;;;;;6.38;5.40;;;6.80;99.90;;;;;;6155268;23;20712;-79
2021/01/16 13:08:14;;;;;;;5.60;4.90;;;6.70;99.90;;;;;;6132013;23;20197;-79
2021/01/16 13:10:49;;;;;;;5.82;4.85;;;6.70;99.90;;;;;;6155788;23;20141;-80
2021/01/16 13:13:16;;;;;;;5.20;3.97;;;6.80;99.90;;;;;;6131336;23;20572;-80
2021/01/16 13:15:47;;;;;;;6.47;4.20;;;6.80;99.90;;;;;;6155458;23;20173;-79
2021/01/16 13:18:18;;;;;;;5.25;4.20;;;6.80;99.90;;;;;;6158989;23;20180;-79
2021/01/16 13:20:49;;;;;;;5.22;4.00;;;6.80;99.90;;;;;;6111125;23;20150;-80
2021/01/16 13:23:17;;;;;;;4.57;3.70;;;6.80;99.90;;;;;;6156925;23;20219;-80
2021/01/16 13:25:44;;;;;;;3.47;3.15;;;6.80;99.90;;;;;;6156946;23;20184;-80
2021/01/16 13:28:14;;;;;;;3.15;2.10;;;6.80;99.90;;;;;;6181387;23;20485;-80
2021/01/16 13:30:47;;;;;;;2.72;2.20;;;6.80;99.90;;;;;;6155514;23;20193;-80
2021/01/16 13:33:24;;;;;;;3.67;2.45;;;6.80;99.90;;;;;;6156590;23;20532;-80